Barneveld, New York
Current Conditions -  °F | °C
As of 3:45 PM on Tuesday 21 Oct 2014 (Local Time) from KRME Reporting Station
Overcast Overcast  
Wind Chill: 52°   Ceiling: 1800
Heat Index: 52°   Visibility: 10mi
Dew Point: 48°   Wind: 8mph
Humidity: 86%   Direction: 110°ESE
Pressure: 29.91"   Gusts: NA
Location:  43.27°N, 75.19°W
Report Text: KRME 211945Z 11007KT 10SM BKN018 OVC037 11/09 A2991 RMK AO2 RAB41E45 P0000 T01110089
Loading
Personal Weather Stations






























Interactive Weather Map
Tropical Storm Tracking
New forecast layout! Learn more

10-Day Weather Forecast

Advertisements
Track Severe Weather on mobile